Time;durP1;ratioP1;P1;durP2;ratioP2;P2;SDS_P1;SDS_P2;PMS_P1;PMS_P2;Temp;Humidity;BMP_temperature;BMP_pressure;BME280_temperature;BME280_humidity;BME280_pressure;Samples;Min_cycle;Max_cycle;Signal;HPM_P1;HPM_P2
2022/03/11 00:00:32;;;;;;;12.13;7.93;;;5.70;89.30;;;;;;5104005;28;20048;-65
2022/03/11 00:02:58;;;;;;;15.80;6.93;;;5.60;89.80;;;;;;5104020;28;20047;-65
2022/03/11 00:05:25;;;;;;;10.00;7.10;;;5.70;90.50;;;;;;5104051;28;20040;-65
2022/03/11 00:07:51;;;;;;;10.77;6.45;;;5.60;91.10;;;;;;5103811;28;20052;-65
2022/03/11 00:10:17;;;;;;;11.48;6.90;;;5.50;91.20;;;;;;5103994;28;20100;-65
2022/03/11 00:12:42;;;;;;;10.45;6.80;;;5.40;91.70;;;;;;5103940;28;20044;-65
2022/03/11 00:15:09;;;;;;;17.40;7.13;;;5.40;92.00;;;;;;5106764;28;20040;-65
2022/03/11 00:17:35;;;;;;;14.35;8.25;;;5.40;92.30;;;;;;5106658;28;20048;-65
2022/03/11 00:20:02;;;;;;;11.63;6.70;;;5.40;92.80;;;;;;5107603;28;20040;-65
2022/03/11 00:22:28;;;;;;;13.88;7.03;;;5.40;93.00;;;;;;5107067;28;20044;-65
2022/03/11 00:24:54;;;;;;;10.32;6.72;;;5.30;93.40;;;;;;5107596;28;20124;-65
2022/03/11 00:27:19;;;;;;;14.85;7.13;;;5.30;94.00;;;;;;5107554;28;20044;-64
2022/03/11 00:29:45;;;;;;;11.57;6.85;;;5.20;94.50;;;;;;5107816;28;20197;-64
2022/03/11 00:32:11;;;;;;;11.45;7.50;;;5.20;94.50;;;;;;5107574;28;20050;-65
2022/03/11 00:34:36;;;;;;;13.18;6.38;;;5.20;95.10;;;;;;5107525;28;20090;-64
2022/03/11 00:37:02;;;;;;;12.00;7.10;;;5.10;95.40;;;;;;5106726;28;20044;-65
2022/03/11 00:39:28;;;;;;;15.30;6.80;;;5.10;96.10;;;;;;5107444;28;20052;-65
2022/03/11 00:41:55;;;;;;;13.18;7.97;;;5.10;96.40;;;;;;5107594;28;20071;-64
2022/03/11 00:44:21;;;;;;;12.13;6.70;;;5.10;96.80;;;;;;5107007;28;20056;-65
2022/03/11 00:46:47;;;;;;;10.65;6.90;;;5.10;96.90;;;;;;5107286;28;20059;-65
2022/03/11 00:49:12;;;;;;;17.85;7.43;;;5.00;97.40;;;;;;5107411;28;20072;-64
2022/03/11 00:51:38;;;;;;;11.10;6.97;;;5.00;97.50;;;;;;5106368;28;20043;-64
2022/03/11 00:54:04;;;;;;;13.60;7.72;;;5.00;97.90;;;;;;5107384;28;20048;-64
2022/03/11 00:56:31;;;;;;;13.23;6.85;;;5.00;98.20;;;;;;5106831;28;20036;-65
2022/03/11 00:58:57;;;;;;;15.93;7.80;;;5.00;98.20;;;;;;5107277;28;20051;-65
2022/03/11 01:01:23;;;;;;;14.13;8.10;;;5.00;98.70;;;;;;5106816;28;20079;-65
2022/03/11 01:03:49;;;;;;;12.68;7.35;;;5.00;99.10;;;;;;5107061;28;20048;-64
2022/03/11 01:06:15;;;;;;;12.30;7.40;;;4.90;99.30;;;;;;5106241;28;20052;-65
2022/03/11 01:08:41;;;;;;;14.60;7.15;;;5.00;99.50;;;;;;5105811;28;20389;-65
2022/03/11 01:11:11;;;;;;;10.50;7.43;;;4.90;99.50;;;;;;5105499;28;20055;-64
2022/03/11 01:13:38;;;;;;;12.32;7.60;;;4.90;99.90;;;;;;5106865;28;20052;-64
2022/03/11 01:16:04;;;;;;;9.93;6.77;;;4.90;99.90;;;;;;5106708;28;20096;-65
2022/03/11 01:18:30;;;;;;;12.38;7.78;;;4.90;99.90;;;;;;5106782;28;20043;-65
2022/03/11 01:20:56;;;;;;;13.57;7.78;;;4.80;99.90;;;;;;5105940;28;20040;-65
2022/03/11 01:23:22;;;;;;;12.88;8.57;;;4.80;99.90;;;;;;5105245;28;20408;-65
2022/03/11 01:25:48;;;;;;;13.55;8.10;;;4.70;99.90;;;;;;5106195;28;20044;-64
2022/03/11 01:28:14;;;;;;;18.98;8.27;;;4.70;99.90;;;;;;5106602;28;20062;-65
2022/03/11 01:30:41;;;;;;;19.23;8.57;;;4.60;99.90;;;;;;5106420;28;20047;-64
2022/03/11 01:33:06;;;;;;;21.52;8.60;;;4.60;99.90;;;;;;5106656;28;20040;-64
2022/03/11 01:35:32;;;;;;;13.75;8.52;;;4.60;99.90;;;;;;5106055;28;20044;-64
2022/03/11 01:37:58;;;;;;;18.27;8.90;;;4.50;99.90;;;;;;5105791;28;20492;-66
2022/03/11 01:40:24;;;;;;;18.52;9.18;;;4.50;99.90;;;;;;5106266;28;20044;-65
2022/03/11 01:42:50;;;;;;;15.05;9.60;;;4.50;99.90;;;;;;5106183;28;20044;-65
2022/03/11 01:45:16;;;;;;;15.43;7.72;;;4.50;99.90;;;;;;5106306;28;20040;-65
2022/03/11 01:47:42;;;;;;;19.83;10.10;;;4.50;99.90;;;;;;5105845;28;20044;-64
2022/03/11 01:50:08;;;;;;;15.27;10.20;;;4.40;99.90;;;;;;5104771;28;20040;-65
2022/03/11 01:52:34;;;;;;;16.30;9.07;;;4.40;99.90;;;;;;5105371;28;20128;-65
2022/03/11 01:55:00;;;;;;;19.90;10.48;;;4.40;99.90;;;;;;5105867;28;20044;-65
2022/03/11 01:57:26;;;;;;;14.70;9.50;;;4.40;99.90;;;;;;5106296;28;20052;-64
2022/03/11 01:59:51;;;;;;;18.98;9.80;;;4.40;99.90;;;;;;5104506;28;20055;-64
2022/03/11 02:02:17;;;;;;;16.58;10.13;;;4.30;99.90;;;;;;5105579;28;20048;-64
2022/03/11 02:04:43;;;;;;;22.48;11.00;;;4.30;99.90;;;;;;5105683;28;20063;-65
2022/03/11 02:07:10;;;;;;;19.80;10.98;;;4.20;99.90;;;;;;5105273;28;20047;-64
2022/03/11 02:09:36;;;;;;;16.15;9.75;;;4.10;99.90;;;;;;5105449;28;20071;-64
2022/03/11 02:12:03;;;;;;;20.67;10.95;;;4.10;99.90;;;;;;5105926;28;20123;-65
2022/03/11 02:14:29;;;;;;;18.55;10.75;;;4.10;99.90;;;;;;5105439;28;20099;-64
2022/03/11 02:16:54;;;;;;;22.17;11.55;;;4.00;99.90;;;;;;5105433;28;20051;-64
2022/03/11 02:19:20;;;;;;;19.42;11.63;;;4.10;99.90;;;;;;5105669;28;20036;-65
2022/03/11 02:21:48;;;;;;;21.63;13.35;;;4.00;99.90;;;;;;5104447;28;20125;-65
2022/03/11 02:24:15;;;;;;;25.75;10.35;;;4.00;99.90;;;;;;5104266;28;20638;-64
2022/03/11 02:26:41;;;;;;;21.53;12.73;;;4.00;99.90;;;;;;5105399;28;20036;-65
2022/03/11 02:29:07;;;;;;;20.45;11.35;;;3.90;99.90;;;;;;5105236;28;20036;-64
2022/03/11 02:31:33;;;;;;;23.30;13.45;;;3.90;99.90;;;;;;5105202;28;20052;-64
2022/03/11 02:34:01;;;;;;;20.92;12.65;;;3.80;99.90;;;;;;5105124;28;20040;-65
2022/03/11 02:36:27;;;;;;;23.77;14.32;;;3.80;99.90;;;;;;5103990;28;20043;-64
2022/03/11 02:38:54;;;;;;;24.48;15.48;;;3.80;99.90;;;;;;5105121;28;20044;-64
2022/03/11 02:41:20;;;;;;;21.90;13.38;;;3.80;99.90;;;;;;5104984;28;20059;-65
2022/03/11 02:43:45;;;;;;;24.45;14.40;;;3.70;99.90;;;;;;5104909;28;20107;-65
2022/03/11 02:46:12;;;;;;;22.85;14.38;;;3.70;99.90;;;;;;5105042;28;20332;-64
2022/03/11 02:48:38;;;;;;;21.43;14.37;;;3.70;99.90;;;;;;5105207;28;20162;-64
2022/03/11 02:51:04;;;;;;;27.13;16.45;;;3.70;99.90;;;;;;5104118;28;20036;-64
2022/03/11 02:53:30;;;;;;;24.60;14.13;;;3.70;99.90;;;;;;5104836;28;20375;-64
2022/03/11 02:55:58;;;;;;;25.67;14.30;;;3.70;99.90;;;;;;5104854;28;20064;-65
2022/03/11 02:58:23;;;;;;;24.60;15.18;;;3.90;99.90;;;;;;5104590;28;20044;-66
2022/03/11 03:00:49;;;;;;;27.83;16.70;;;3.60;99.90;;;;;;5104626;28;20480;-64
2022/03/11 03:03:15;;;;;;;26.35;16.02;;;3.60;99.90;;;;;;5105199;28;20075;-62
2022/03/11 03:05:41;;;;;;;24.00;15.15;;;3.60;99.90;;;;;;5104448;28;20517;-64
2022/03/11 03:08:07;;;;;;;24.95;16.23;;;3.60;99.90;;;;;;5104011;28;20051;-64
2022/03/11 03:10:33;;;;;;;23.35;14.68;;;3.50;99.90;;;;;;5094122;28;20044;-64
2022/03/11 03:12:58;;;;;;;28.75;15.93;;;3.50;99.90;;;;;;5086521;28;20079;-64
2022/03/11 03:15:24;;;;;;;28.63;16.67;;;3.50;99.90;;;;;;5104768;28;20100;-64
2022/03/11 03:17:50;;;;;;;24.75;13.57;;;3.40;99.90;;;;;;5104387;28;20063;-64
2022/03/11 03:20:16;;;;;;;31.33;16.20;;;3.50;99.90;;;;;;5104206;28;20043;-64
2022/03/11 03:22:42;;;;;;;32.10;16.98;;;3.40;99.90;;;;;;5103752;28;20044;-64
2022/03/11 03:25:09;;;;;;;30.90;19.00;;;3.40;99.90;;;;;;5104539;28;20036;-64
2022/03/11 03:27:35;;;;;;;27.73;16.03;;;3.40;99.90;;;;;;5103287;28;20050;-64
2022/03/11 03:30:03;;;;;;;29.27;16.42;;;3.60;99.90;;;;;;5104205;28;20040;-65
2022/03/11 03:32:28;;;;;;;27.55;16.73;;;3.40;99.90;;;;;;5104200;28;20496;-65
2022/03/11 03:34:54;;;;;;;28.95;18.63;;;3.30;99.90;;;;;;5104108;28;20047;-64
2022/03/11 03:37:20;;;;;;;28.85;15.48;;;3.30;99.90;;;;;;5103528;28;20063;-64
2022/03/11 03:39:45;;;;;;;28.75;16.90;;;3.30;99.90;;;;;;5104385;28;20046;-64
2022/03/11 03:42:11;;;;;;;27.40;17.63;;;3.30;99.90;;;;;;5102839;28;20044;-64
2022/03/11 03:44:37;;;;;;;33.60;19.05;;;3.20;99.90;;;;;;5104188;28;20120;-64
2022/03/11 03:47:04;;;;;;;35.70;19.17;;;3.30;99.90;;;;;;5104006;28;20104;-64
2022/03/11 03:49:30;;;;;;;33.75;18.10;;;3.20;99.90;;;;;;5106053;28;20050;-64
2022/03/11 03:51:56;;;;;;;30.35;19.02;;;3.20;99.90;;;;;;5107626;28;20085;-64
2022/03/11 03:54:22;;;;;;;30.63;19.20;;;3.10;99.90;;;;;;5108464;28;20530;-64
2022/03/11 03:56:48;;;;;;;28.40;17.15;;;3.10;99.90;;;;;;5108279;28;20048;-63
2022/03/11 03:59:15;;;;;;;27.90;19.08;;;3.10;99.90;;;;;;5108085;28;20434;-64
2022/03/11 04:01:42;;;;;;;32.17;17.63;;;3.10;99.90;;;;;;5108284;28;20419;-64
2022/03/11 04:04:09;;;;;;;31.60;20.05;;;3.10;99.90;;;;;;5108075;28;20292;-64
2022/03/11 04:06:37;;;;;;;31.52;18.13;;;3.10;99.90;;;;;;5106176;28;20056;-64
2022/03/11 04:09:04;;;;;;;;;;;3.00;99.90;;;;;;5108634;28;20074;-64
2022/03/11 04:11:30;;;;;;;28.95;17.75;;;3.00;99.90;;;;;;5107941;28;19987;-64
2022/03/11 04:13:56;;;;;;;29.58;18.48;;;3.00;99.90;;;;;;5107886;28;20122;-64
2022/03/11 04:16:22;;;;;;;25.70;15.80;;;3.00;99.90;;;;;;5107832;28;20136;-63
2022/03/11 04:18:49;;;;;;;28.58;19.38;;;2.90;99.90;;;;;;5108101;28;20040;-63
2022/03/11 04:21:15;;;;;;;36.20;18.35;;;3.00;99.90;;;;;;5106679;28;20056;-64
2022/03/11 04:23:43;;;;;;;25.83;15.15;;;2.90;99.90;;;;;;5107836;28;20054;-65
2022/03/11 04:26:09;;;;;;;35.45;18.92;;;2.90;99.90;;;;;;5107721;28;20047;-64
2022/03/11 04:28:36;;;;;;;30.27;18.25;;;2.80;99.90;;;;;;5107806;28;20051;-64
2022/03/11 04:31:03;;;;;;;33.85;19.70;;;2.80;99.90;;;;;;5107766;28;20040;-64
2022/03/11 04:33:30;;;;;;;34.88;19.63;;;2.80;99.90;;;;;;5107742;28;20036;-64
2022/03/11 04:35:56;;;;;;;31.65;18.58;;;2.70;99.90;;;;;;5106596;28;20043;-64
2022/03/11 04:38:21;;;;;;;35.60;19.48;;;2.70;99.90;;;;;;5107655;28;20043;-64
2022/03/11 04:40:47;;;;;;;29.08;16.60;;;2.70;99.90;;;;;;5107423;28;20044;-64
2022/03/11 04:43:13;;;;;;;29.85;18.67;;;2.70;99.90;;;;;;5107519;28;20148;-64
2022/03/11 04:45:39;;;;;;;31.38;18.67;;;2.60;99.90;;;;;;5107571;28;20075;-65
2022/03/11 04:48:06;;;;;;;32.58;19.98;;;2.60;99.90;;;;;;5107302;28;20040;-64
2022/03/11 04:50:31;;;;;;;32.45;19.42;;;2.60;99.90;;;;;;5107083;28;20391;-64
2022/03/11 04:52:57;;;;;;;33.67;19.33;;;2.60;99.90;;;;;;5106764;28;20636;-64
2022/03/11 04:55:23;;;;;;;26.98;15.10;;;2.50;99.90;;;;;;5107200;28;20040;-64
2022/03/11 04:57:49;;;;;;;30.95;19.70;;;2.50;99.90;;;;;;5107320;28;20051;-64
2022/03/11 05:00:15;;;;;;;33.35;20.05;;;2.50;99.90;;;;;;5106417;28;20040;-64
2022/03/11 05:02:44;;;;;;;34.20;20.95;;;2.40;99.90;;;;;;5106950;28;20048;-64
2022/03/11 05:05:14;;;;;;;31.33;20.70;;;2.40;99.90;;;;;;5106625;28;20052;-64
2022/03/11 05:07:41;;;;;;;30.70;19.00;;;2.40;99.90;;;;;;5106551;28;20036;-64
2022/03/11 05:10:08;;;;;;;31.85;19.30;;;2.40;99.90;;;;;;5107150;28;20415;-64
2022/03/11 05:12:40;;;;;;;40.05;21.33;;;2.30;99.90;;;;;;5106817;28;20040;-64
2022/03/11 05:15:08;;;;;;;29.15;19.23;;;2.30;99.90;;;;;;5106804;28;20048;-64
2022/03/11 05:17:34;;;;;;;32.40;20.95;;;2.30;99.90;;;;;;5139635;27;20052;-64
2022/03/11 05:20:00;;;;;;;32.33;19.92;;;2.30;99.90;;;;;;5106403;28;20057;-64
2022/03/11 05:22:26;;;;;;;31.15;19.65;;;2.20;99.90;;;;;;5106280;28;20075;-64
2022/03/11 05:24:52;;;;;;;37.13;20.42;;;2.20;99.90;;;;;;5106697;28;20040;-64
2022/03/11 05:27:17;;;;;;;30.70;17.77;;;2.30;99.90;;;;;;5106605;28;20733;-64
2022/03/11 05:29:43;;;;;;;32.63;19.00;;;2.30;99.90;;;;;;5106660;28;20065;-63
2022/03/11 05:32:10;;;;;;;33.70;20.75;;;2.30;99.90;;;;;;5106425;28;20169;-64
2022/03/11 05:34:39;;;;;;;32.17;20.02;;;2.20;99.90;;;;;;5106566;28;20052;-63
2022/03/11 05:37:06;;;;;;;33.15;20.70;;;2.30;99.90;;;;;;5105607;28;20047;-64
2022/03/11 05:39:32;;;;;;;33.05;20.75;;;2.20;99.90;;;;;;5106068;28;20032;-64
2022/03/11 05:41:58;;;;;;;32.72;19.30;;;2.20;99.90;;;;;;5105598;28;20039;-64
2022/03/11 05:44:24;;;;;;;29.13;17.08;;;2.20;99.90;;;;;;5105857;28;20055;-65
2022/03/11 05:46:52;;;;;;;33.35;20.15;;;2.20;99.90;;;;;;5105658;28;20101;-65
2022/03/11 05:49:18;;;;;;;36.90;20.02;;;2.20;99.90;;;;;;5106033;28;20058;-64
2022/03/11 05:51:43;;;;;;;31.23;19.20;;;2.20;99.90;;;;;;5105030;28;20044;-64
2022/03/11 05:54:09;;;;;;;34.42;20.85;;;2.10;99.90;;;;;;5105857;28;20058;-65
2022/03/11 05:56:35;;;;;;;35.47;20.55;;;2.10;99.90;;;;;;5105777;28;20044;-64
2022/03/11 05:59:01;;;;;;;28.58;19.40;;;2.10;99.90;;;;;;5105791;28;20044;-64
2022/03/11 06:01:27;;;;;;;33.80;21.25;;;2.10;99.90;;;;;;5105829;28;20044;-64
2022/03/11 06:03:52;;;;;;;30.52;20.05;;;2.20;99.90;;;;;;5105971;28;20397;-64
2022/03/11 06:06:18;;;;;;;29.20;17.25;;;2.20;99.90;;;;;;5104958;28;20063;-65
2022/03/11 06:08:44;;;;;;;31.38;20.42;;;2.20;99.90;;;;;;5105834;28;20036;-64
2022/03/11 06:11:10;;;;;;;35.97;19.50;;;2.20;99.90;;;;;;5105046;28;20073;-64
2022/03/11 06:13:36;;;;;;;29.13;17.05;;;2.20;99.90;;;;;;5105696;28;20032;-65
2022/03/11 06:16:05;;;;;;;35.90;19.35;;;2.20;99.90;;;;;;5105385;28;20050;-64
2022/03/11 06:18:31;;;;;;;33.90;19.27;;;2.20;99.90;;;;;;5105509;28;20054;-65
2022/03/11 06:20:57;;;;;;;28.42;17.33;;;2.20;99.90;;;;;;5104423;28;20055;-65
2022/03/11 06:23:23;;;;;;;29.40;19.05;;;2.20;99.90;;;;;;5105517;28;20047;-65
2022/03/11 06:25:49;;;;;;;33.83;20.15;;;2.30;99.90;;;;;;5105422;28;20044;-64
2022/03/11 06:28:15;;;;;;;30.02;19.38;;;2.30;99.90;;;;;;5105684;28;20123;-65
2022/03/11 06:30:42;;;;;;;33.42;19.77;;;2.30;99.90;;;;;;5105212;28;20047;-64
2022/03/11 06:33:09;;;;;;;32.65;18.92;;;2.40;99.90;;;;;;5105155;28;20064;-64
2022/03/11 06:35:35;;;;;;;30.52;18.20;;;2.40;99.90;;;;;;5104996;28;20407;-64
2022/03/11 06:38:01;;;;;;;30.42;17.38;;;2.40;99.90;;;;;;5104676;28;20161;-64
2022/03/11 06:40:27;;;;;;;34.00;19.17;;;2.40;99.90;;;;;;5105293;28;20490;-65
2022/03/11 06:42:53;;;;;;;30.33;19.15;;;2.40;99.90;;;;;;5104783;28;20040;-64
2022/03/11 06:45:19;;;;;;;29.52;18.35;;;2.50;99.90;;;;;;5104956;28;20127;-65
2022/03/11 06:47:46;;;;;;;33.97;18.77;;;2.50;99.90;;;;;;5104937;28;20078;-64
2022/03/11 06:50:13;;;;;;;31.80;18.92;;;2.60;99.90;;;;;;5103605;28;20036;-64
2022/03/11 06:52:38;;;;;;;29.73;19.48;;;2.60;99.90;;;;;;5104493;28;20048;-65
2022/03/11 06:55:05;;;;;;;33.20;19.83;;;2.70;99.90;;;;;;5104638;28;20059;-64
2022/03/11 06:57:32;;;;;;;31.13;17.55;;;2.60;99.90;;;;;;5104646;28;20127;-64
2022/03/11 06:59:57;;;;;;;29.60;18.58;;;2.60;99.90;;;;;;5104698;28;20047;-64
2022/03/11 07:02:23;;;;;;;26.88;17.08;;;2.60;99.90;;;;;;5104542;28;20056;-64
2022/03/11 07:04:49;;;;;;;29.98;18.50;;;2.70;99.90;;;;;;5104939;28;20040;-65
2022/03/11 07:07:15;;;;;;;34.38;17.42;;;2.70;99.90;;;;;;5103751;28;20040;-64
2022/03/11 07:09:40;;;;;;;33.47;19.17;;;2.70;99.90;;;;;;5104711;28;20069;-64
2022/03/11 07:12:07;;;;;;;29.05;18.10;;;2.80;99.90;;;;;;5104579;28;20055;-64
2022/03/11 07:14:35;;;;;;;31.50;19.38;;;2.90;99.90;;;;;;5104393;28;20039;-64
2022/03/11 07:17:06;;;;;;;33.13;18.92;;;3.20;99.90;;;;;;5104360;28;20122;-64
2022/03/11 07:19:33;;;;;;;29.23;16.60;;;3.00;99.90;;;;;;5104279;28;20036;-65
2022/03/11 07:22:01;;;;;;;26.02;17.67;;;3.10;99.90;;;;;;5103302;28;20072;-65
2022/03/11 07:24:26;;;;;;;;;;;3.10;99.90;;;;;;5104799;28;20040;-65
2022/03/11 07:26:52;;;;;;;28.08;17.88;;;3.20;99.90;;;;;;5104282;28;20355;-65
2022/03/11 07:29:18;;;;;;;26.88;13.88;;;3.20;99.90;;;;;;5104447;28;20079;-65
2022/03/11 07:31:45;;;;;;;30.45;17.48;;;3.30;99.90;;;;;;5104359;28;20395;-65
2022/03/11 07:34:11;;;;;;;24.40;13.43;;;3.30;99.90;;;;;;5104334;28;20132;-64
2022/03/11 07:36:37;;;;;;;26.23;15.10;;;3.40;99.90;;;;;;5103569;28;20039;-64
2022/03/11 07:39:04;;;;;;;28.33;16.40;;;3.50;99.90;;;;;;5104092;28;20043;-65
2022/03/11 07:41:30;;;;;;;27.98;15.98;;;3.50;99.90;;;;;;5103690;28;20044;-64
2022/03/11 07:43:56;;;;;;;29.45;16.35;;;3.50;99.90;;;;;;5103994;28;20102;-64
2022/03/11 07:46:23;;;;;;;28.42;17.05;;;3.60;99.90;;;;;;5103893;28;20107;-64
2022/03/11 07:48:52;;;;;;;30.63;15.48;;;3.70;99.90;;;;;;5103918;28;20040;-64
2022/03/11 07:51:18;;;;;;;24.45;16.17;;;3.80;99.90;;;;;;5103110;28;20044;-64
2022/03/11 07:53:44;;;;;;;29.38;18.08;;;3.90;99.90;;;;;;5104131;28;20058;-64
2022/03/11 07:56:11;;;;;;;32.33;16.13;;;3.90;99.90;;;;;;5104316;28;20040;-64
2022/03/11 07:58:39;;;;;;;26.75;15.90;;;4.00;99.90;;;;;;5103856;28;20056;-64
2022/03/11 08:01:07;;;;;;;;;;;4.10;99.90;;;;;;5104115;28;20051;-64
2022/03/11 08:03:34;;;;;;;28.65;16.33;;;4.10;99.90;;;;;;5102510;28;19920;-65
2022/03/11 08:06:00;;;;;;;28.83;17.08;;;4.30;99.90;;;;;;5102968;28;20085;-64
2022/03/11 08:08:27;;;;;;;25.27;15.57;;;4.40;99.90;;;;;;5104195;28;20080;-64
2022/03/11 08:10:54;;;;;;;26.33;16.45;;;4.40;99.90;;;;;;5103921;28;20058;-64
2022/03/11 08:13:20;;;;;;;31.75;17.27;;;4.70;99.90;;;;;;5104015;28;20044;-65
2022/03/11 08:15:46;;;;;;;29.70;15.15;;;4.70;99.90;;;;;;5103948;28;20048;-64
2022/03/11 08:18:12;;;;;;;26.77;14.60;;;4.80;99.30;;;;;;5103960;28;20050;-65
2022/03/11 08:20:38;;;;;;;31.15;17.60;;;5.00;99.30;;;;;;5103736;28;20075;-66
2022/03/11 08:23:04;;;;;;;24.83;15.88;;;5.10;98.90;;;;;;5103593;28;20079;-64
2022/03/11 08:25:30;;;;;;;30.23;16.63;;;5.10;97.90;;;;;;5103777;28;20066;-64
2022/03/11 08:27:57;;;;;;;27.75;16.98;;;5.20;97.70;;;;;;5103544;28;20126;-65
2022/03/11 08:30:25;;;;;;;25.33;14.13;;;5.20;97.60;;;;;;5103803;28;20058;-65
2022/03/11 08:32:52;;;;;;;25.40;16.08;;;5.40;97.10;;;;;;5103808;28;20074;-65
2022/03/11 08:35:18;;;;;;;24.42;15.60;;;5.50;95.90;;;;;;5105114;28;20040;-64
2022/03/11 08:37:44;;;;;;;28.92;15.70;;;5.60;95.20;;;;;;5106855;28;20103;-64
2022/03/11 08:40:11;;;;;;;31.73;17.02;;;5.70;95.80;;;;;;5107466;28;20051;-65
2022/03/11 08:42:38;;;;;;;22.73;14.88;;;5.80;94.60;;;;;;5107207;28;20051;-64
2022/03/11 08:45:05;;;;;;;25.17;14.77;;;6.00;93.30;;;;;;5107135;28;20142;-64
2022/03/11 08:47:31;;;;;;;27.05;15.70;;;5.90;91.50;;;;;;5107709;28;20097;-64
2022/03/11 08:49:57;;;;;;;25.10;15.57;;;5.90;91.90;;;;;;5107233;28;20036;-64
2022/03/11 08:52:25;;;;;;;27.85;16.23;;;6.10;91.90;;;;;;5106229;28;20083;-65
2022/03/11 08:54:52;;;;;;;24.67;15.65;;;6.20;91.20;;;;;;5107263;28;20044;-64
2022/03/11 08:57:19;;;;;;;25.63;14.75;;;6.30;91.10;;;;;;5107014;28;20082;-64
2022/03/11 08:59:45;;;;;;;21.08;14.05;;;6.40;90.00;;;;;;5107377;28;20044;-65
2022/03/11 09:02:13;;;;;;;30.35;16.15;;;6.40;87.30;;;;;;5106913;28;20048;-64
2022/03/11 09:04:39;;;;;;;28.85;16.10;;;6.50;87.90;;;;;;5107137;28;20105;-64
2022/03/11 09:07:05;;;;;;;24.55;15.88;;;6.60;86.80;;;;;;5106271;28;20071;-65
2022/03/11 09:09:32;;;;;;;25.77;15.65;;;6.60;86.70;;;;;;5106972;28;20048;-64
2022/03/11 09:11:58;;;;;;;26.50;14.70;;;6.80;84.40;;;;;;5106853;28;20047;-63
2022/03/11 09:14:24;;;;;;;22.27;15.13;;;6.80;83.40;;;;;;5106902;28;20044;-64
2022/03/11 09:16:50;;;;;;;27.83;16.17;;;6.90;83.30;;;;;;5106505;28;20051;-65
2022/03/11 09:19:17;;;;;;;22.50;14.70;;;6.90;82.30;;;;;;5106740;28;20107;-64
2022/03/11 09:21:43;;;;;;;26.88;15.32;;;7.00;81.00;;;;;;5104290;28;20051;-65
2022/03/11 09:24:09;;;;;;;27.17;16.23;;;7.10;80.40;;;;;;5106564;28;20091;-65
2022/03/11 09:26:34;;;;;;;20.33;13.13;;;7.10;78.90;;;;;;5106658;28;20048;-64
2022/03/11 09:29:00;;;;;;;25.48;15.52;;;7.10;76.80;;;;;;5106381;28;20040;-64
2022/03/11 09:31:26;;;;;;;24.80;16.35;;;7.00;75.90;;;;;;5106543;28;20048;-64
2022/03/11 09:33:51;;;;;;;23.55;14.75;;;7.10;78.20;;;;;;5106583;28;20040;-65
2022/03/11 09:36:18;;;;;;;27.02;15.07;;;7.10;75.50;;;;;;5105598;28;20107;-64
2022/03/11 09:38:44;;;;;;;25.23;15.27;;;7.10;74.60;;;;;;5106527;28;20079;-65
2022/03/11 09:41:10;;;;;;;28.40;17.02;;;7.20;74.90;;;;;;5105920;28;20047;-65
2022/03/11 09:43:37;;;;;;;24.88;15.07;;;7.40;76.00;;;;;;5106312;28;20056;-65
2022/03/11 09:46:03;;;;;;;28.00;15.48;;;7.60;74.20;;;;;;5105754;28;20039;-65
2022/03/11 09:48:30;;;;;;;27.55;15.77;;;7.50;73.80;;;;;;5106093;28;20575;-65
2022/03/11 09:50:58;;;;;;;25.40;15.73;;;7.70;74.00;;;;;;5105386;28;20079;-65
2022/03/11 09:53:25;;;;;;;24.60;14.65;;;7.90;74.20;;;;;;5105934;28;20104;-65
2022/03/11 09:55:51;;;;;;;21.33;10.98;;;8.00;71.50;;;;;;5105870;28;20040;-65
2022/03/11 09:58:16;;;;;;;23.55;15.55;;;7.90;69.30;;;;;;5106039;28;20040;-64
2022/03/11 10:00:43;;;;;;;20.85;13.23;;;8.00;70.30;;;;;;5105789;28;20051;-64
2022/03/11 10:03:08;;;;;;;24.95;14.82;;;8.20;69.40;;;;;;5105847;28;20071;-64
2022/03/11 10:05:51;;;;;;;25.42;15.23;;;8.30;68.90;;;;;;5105757;28;20032;-64
2022/03/11 10:08:31;;;;;;;28.02;16.02;;;8.40;66.00;;;;;;5105612;28;20051;-64
2022/03/11 10:11:26;;;;;;;20.75;14.18;;;8.30;65.60;;;;;;5105675;28;20048;-64
2022/03/11 10:14:06;;;;;;;22.02;15.23;;;8.40;63.80;;;;;;5105805;28;20051;-64
2022/03/11 10:16:33;;;;;;;24.40;13.90;;;8.30;63.50;;;;;;5105564;28;20051;-64
2022/03/11 10:19:01;;;;;;;23.13;14.05;;;8.30;62.60;;;;;;5105606;28;20039;-64
2022/03/11 10:21:30;;;;;;;;;;;8.40;62.50;;;;;;5105101;28;20048;-63
2022/03/11 10:23:56;;;;;;;22.00;14.43;;;8.40;62.50;;;;;;5105808;28;19942;-64
2022/03/11 10:26:35;;;;;;;21.17;14.48;;;8.60;63.40;;;;;;5105084;28;20579;-64
2022/03/11 10:29:02;;;;;;;25.15;15.20;;;8.60;61.10;;;;;;5105502;28;20048;-64
2022/03/11 10:31:33;;;;;;;26.60;15.52;;;8.60;61.40;;;;;;5105207;28;20044;-64
2022/03/11 10:34:20;;;;;;;23.70;14.60;;;8.70;61.90;;;;;;5105495;28;20051;-64
2022/03/11 10:37:00;;;;;;;26.08;15.20;;;8.80;61.70;;;;;;5104369;28;20656;-64
2022/03/11 10:39:31;;;;;;;22.02;12.57;;;8.90;61.00;;;;;;5105119;28;20123;-64
2022/03/11 10:42:00;;;;;;;20.52;14.50;;;9.00;59.80;;;;;;5105018;28;20044;-64
2022/03/11 10:44:28;;;;;;;23.00;14.02;;;8.80;59.60;;;;;;5104900;28;20056;-64
2022/03/11 10:46:55;;;;;;;22.42;14.93;;;8.80;59.00;;;;;;5104907;28;20051;-64
2022/03/11 10:49:33;;;;;;;24.80;14.50;;;8.80;59.40;;;;;;5105101;28;20055;-64
2022/03/11 10:52:02;;;;;;;23.95;15.27;;;8.90;60.90;;;;;;5103906;28;20044;-64
2022/03/11 10:54:29;;;;;;;21.48;14.57;;;9.00;60.00;;;;;;5104573;28;20044;-64
2022/03/11 10:56:56;;;;;;;20.50;12.07;;;9.00;58.90;;;;;;5104750;28;20512;-64
2022/03/11 10:59:21;;;;;;;23.45;14.15;;;9.00;58.90;;;;;;5104258;28;20044;-64
2022/03/11 11:01:50;;;;;;;22.70;13.80;;;9.10;58.50;;;;;;5103288;28;20059;-65
2022/03/11 11:04:17;;;;;;;24.27;13.98;;;9.20;58.70;;;;;;5104961;28;20190;-65
2022/03/11 11:06:45;;;;;;;27.35;14.60;;;9.10;57.40;;;;;;5103857;28;20039;-64
2022/03/11 11:09:12;;;;;;;22.10;13.45;;;9.10;58.30;;;;;;5105154;28;20126;-65
2022/03/11 11:11:39;;;;;;;20.60;13.40;;;9.20;57.00;;;;;;5104514;28;20043;-64
2022/03/11 11:14:07;;;;;;;24.70;14.80;;;9.20;57.50;;;;;;5104519;28;20047;-64
2022/03/11 11:16:41;;;;;;;25.40;13.90;;;9.30;56.70;;;;;;5104414;28;20062;-64
2022/03/11 11:19:18;;;;;;;19.33;12.73;;;9.50;55.60;;;;;;5104541;28;20051;-64
2022/03/11 11:21:47;;;;;;;24.92;14.80;;;9.50;54.70;;;;;;5103266;28;20067;-64
2022/03/11 11:24:18;;;;;;;23.60;14.50;;;9.40;54.90;;;;;;5104890;28;20043;-65
2022/03/11 11:26:55;;;;;;;21.63;14.10;;;9.40;54.80;;;;;;5104400;28;20126;-64
2022/03/11 11:29:29;;;;;;;25.42;13.80;;;9.60;55.50;;;;;;5104433;28;20072;-65
2022/03/11 11:31:57;;;;;;;22.50;14.85;;;9.80;55.90;;;;;;5104091;28;20044;-64
2022/03/11 11:34:34;;;;;;;18.58;13.27;;;9.80;54.40;;;;;;5104448;28;20105;-64
2022/03/11 11:37:00;;;;;;;32.03;14.15;;;10.00;54.80;;;;;;5103448;28;20082;-65
2022/03/11 11:39:35;;;;;;;18.52;12.77;;;10.00;53.60;;;;;;5104396;28;20036;-64
2022/03/11 11:42:08;;;;;;;22.38;13.52;;;10.20;54.20;;;;;;5104154;28;20107;-65
2022/03/11 11:44:35;;;;;;;20.70;12.38;;;10.30;52.50;;;;;;5103841;28;20083;-64
2022/03/11 11:47:07;;;;;;;;;;;10.30;51.40;;;;;;5103009;28;20048;-64
2022/03/11 11:49:51;;;;;;;21.92;13.43;;;10.30;52.10;;;;;;5104046;28;19942;-64
2022/03/11 11:52:37;;;;;;;19.92;11.93;;;10.80;52.40;;;;;;5103314;28;20047;-64
2022/03/11 11:55:14;;;;;;;19.75;12.77;;;11.30;49.40;;;;;;5104047;28;20050;-65
2022/03/11 11:57:42;;;;;;;19.40;12.32;;;11.60;49.40;;;;;;5104325;28;20043;-65
2022/03/11 12:00:37;;;;;;;20.95;11.75;;;11.80;48.50;;;;;;5103825;28;20048;-65
2022/03/11 12:03:05;;;;;;;23.67;12.70;;;12.10;46.60;;;;;;5103735;28;20044;-65
2022/03/11 12:05:43;;;;;;;19.23;12.82;;;12.50;47.10;;;;;;5103609;28;20096;-65
2022/03/11 12:08:31;;;;;;;22.20;13.00;;;12.80;45.90;;;;;;5103471;28;20396;-65
2022/03/11 12:10:57;;;;;;;17.30;12.03;;;13.10;46.30;;;;;;5106318;28;20036;-65
2022/03/11 12:13:37;;;;;;;17.23;12.48;;;12.80;44.50;;;;;;5108143;28;20098;-65
2022/03/11 12:16:26;;;;;;;18.83;12.50;;;12.90;43.80;;;;;;5107626;28;20044;-65
2022/03/11 12:18:52;;;;;;;16.60;12.15;;;12.70;44.60;;;;;;5102290;28;20460;-65
2022/03/11 12:21:27;;;;;;;16.02;11.95;;;12.70;43.80;;;;;;5106901;28;20044;-65
2022/03/11 12:23:53;;;;;;;18.50;11.80;;;12.60;43.20;;;;;;5107840;28;20043;-65
2022/03/11 12:26:34;;;;;;;22.58;11.95;;;12.50;43.60;;;;;;5107554;28;20507;-65
2022/03/11 12:28:59;;;;;;;17.55;11.50;;;12.90;44.50;;;;;;5107838;28;20051;-65
2022/03/11 12:31:25;;;;;;;19.65;12.35;;;13.30;43.40;;;;;;5107636;28;20044;-65
2022/03/11 12:33:54;;;;;;;18.83;11.60;;;13.20;43.00;;;;;;5107893;28;20048;-65
2022/03/11 12:36:22;;;;;;;17.27;11.73;;;13.30;41.70;;;;;;5106878;28;20309;-64
2022/03/11 12:38:49;;;;;;;14.30;11.50;;;13.30;42.70;;;;;;5107348;28;20048;-64